Time;durP1;ratioP1;P1;durP2;ratioP2;P2;SDS_P1;SDS_P2;PMS_P1;PMS_P2;Temp;Humidity;BMP_temperature;BMP_pressure;BME280_temperature;BME280_humidity;BME280_pressure;Samples;Min_cycle;Max_cycle;Signal;HPM_P1;HPM_P2
2022/12/21 00:01:23;;;;;;;;;10.33;10.33;;;;;11.98;83.97;100381.19;5035833;28;45515;-63
2022/12/21 00:03:54;;;;;;;;;11.33;11.33;;;;;12.00;84.09;100382.84;5033648;28;45335;-63
2022/12/21 00:06:21;;;;;;;;;10.00;10.00;;;;;12.01;84.27;100388.97;5034696;28;45452;-63
2022/12/21 00:08:48;;;;;;;;;10.00;8.67;;;;;11.92;84.09;100375.28;5030631;28;45536;-63
2022/12/21 00:11:14;;;;;;;;;13.33;13.33;;;;;11.99;83.36;100386.41;5035732;28;45476;-63
2022/12/21 00:13:41;;;;;;;;;10.67;10.67;;;;;12.00;84.25;100388.13;5035625;28;45693;-63
2022/12/21 00:16:10;;;;;;;;;14.67;14.00;;;;;12.00;84.18;100389.91;5035262;28;45358;-63
2022/12/21 00:18:37;;;;;;;;;10.00;9.33;;;;;12.02;83.27;100394.19;5035445;28;45512;-64
2022/12/21 00:21:08;;;;;;;;;10.67;10.00;;;;;12.01;83.94;100391.59;5034783;28;45401;-64
2022/12/21 00:23:34;;;;;;;;;6.33;5.00;;;;;11.95;83.86;100395.38;5034119;28;45718;-63
2022/12/21 00:26:02;;;;;;;;;10.67;10.67;;;;;12.00;83.77;100403.06;5035343;28;45455;-63
2022/12/21 00:28:28;;;;;;;;;10.00;10.00;;;;;12.02;83.44;100388.06;5034039;28;45456;-63
2022/12/21 00:30:54;;;;;;;;;10.00;7.67;;;;;11.98;83.88;100378.56;5022812;28;45388;-63
2022/12/21 00:33:19;;;;;;;;;11.00;11.00;;;;;11.97;84.76;100385.63;5035397;28;45355;-64
2022/12/21 00:35:49;;;;;;;;;13.00;11.33;;;;;11.90;83.69;100381.53;5035162;28;46612;-63
2022/12/21 00:38:15;;;;;;;;;10.33;10.33;;;;;11.96;84.27;100388.34;5025193;28;46162;-63
2022/12/21 00:40:41;;;;;;;;;7.67;5.67;;;;;11.93;84.61;100384.06;5032742;28;45514;-63
2022/12/21 00:43:06;;;;;;;;;7.67;7.67;;;;;12.00;83.81;100395.16;5029636;28;45473;-63
2022/12/21 00:45:31;;;;;;;;;10.33;9.00;;;;;12.02;84.24;100393.34;5029899;28;45678;-64
2022/12/21 00:47:56;;;;;;;;;14.00;12.00;;;;;12.04;84.02;100392.34;5033745;28;45602;-63
2022/12/21 00:50:22;;;;;;;;;9.33;9.33;;;;;11.97;83.72;100377.72;5022500;28;45480;-63
2022/12/21 00:52:47;;;;;;;;;10.00;10.00;;;;;12.00;84.24;100390.75;5028746;28;45618;-63
2022/12/21 00:55:12;;;;;;;;;9.33;8.67;;;;;12.02;84.40;100383.63;5028558;28;45530;-63
2022/12/21 00:57:38;;;;;;;;;12.67;10.33;;;;;11.99;84.43;100382.94;5030459;28;45417;-63
2022/12/21 01:00:04;;;;;;;;;8.33;8.33;;;;;12.01;84.30;100383.69;5023601;28;45541;-63
2022/12/21 01:02:29;;;;;;;;;9.00;9.00;;;;;12.04;84.02;100391.50;5022946;28;45335;-63
2022/12/21 01:04:55;;;;;;;;;8.00;8.00;;;;;12.03;83.95;100392.41;5026480;28;45449;-63
2022/12/21 01:07:20;;;;;;;;;8.33;8.33;;;;;12.03;84.25;100387.13;5019437;28;45491;-63
2022/12/21 01:09:45;;;;;;;;;9.33;9.33;;;;;12.01;83.36;100402.13;5017989;28;45413;-63
2022/12/21 01:12:10;;;;;;;;;13.00;12.00;;;;;11.99;83.81;100399.59;5032635;28;45438;-64
2022/12/21 01:14:36;;;;;;;;;10.67;10.67;;;;;12.02;84.50;100410.00;5034585;28;52529;-63
2022/12/21 01:17:01;;;;;;;;;10.67;9.00;;;;;11.96;84.63;100402.38;5029425;28;45339;-63
2022/12/21 01:19:26;;;;;;;;;11.00;11.00;;;;;12.01;84.67;100397.75;5018858;28;45392;-63
2022/12/21 01:21:52;;;;;;;;;4.00;4.00;;;;;11.99;84.30;100404.88;5025765;28;45374;-63
2022/12/21 01:24:17;;;;;;;;;7.67;7.67;;;;;11.98;83.75;100411.03;5027088;28;46520;-63
2022/12/21 01:26:43;;;;;;;;;10.00;10.00;;;;;12.01;83.83;100416.19;5030986;28;45369;-63
2022/12/21 01:29:12;;;;;;;;;13.33;12.00;;;;;11.99;84.10;100415.41;5016598;28;45444;-63
2022/12/21 01:31:38;;;;;;;;;7.00;7.00;;;;;12.01;84.59;100421.47;5024066;28;45473;-63
2022/12/21 01:34:03;;;;;;;;;6.67;6.00;;;;;11.95;84.58;100408.53;5019226;28;45546;-63
2022/12/21 01:36:28;;;;;;;;;6.00;6.00;;;;;12.02;83.96;100417.91;5031477;28;46145;-63
2022/12/21 01:38:54;;;;;;;;;7.00;7.00;;;;;12.01;84.09;100410.94;5029368;28;45747;-63
2022/12/21 01:41:23;;;;;;;;;6.00;6.00;;;;;12.01;83.99;100407.41;5032292;28;45432;-63
2022/12/21 01:44:18;;;;;;;;;7.00;7.00;;;;;11.99;83.82;100415.41;5033053;28;45528;-64
2022/12/21 01:46:47;;;;;;;;;6.00;6.00;;;;;12.02;84.61;100424.97;5030357;28;45602;-63
2022/12/21 01:49:18;;;;;;;;;6.00;6.00;;;;;11.99;84.52;100425.94;5037629;28;45432;-63
2022/12/21 01:51:49;;;;;;;;;7.33;6.00;;;;;12.00;84.28;100425.00;5037955;28;45400;-63
2022/12/21 01:54:20;;;;;;;;;10.67;9.67;;;;;12.00;83.81;100429.44;5037413;28;46322;-63
2022/12/21 01:56:50;;;;;;;;;5.00;5.00;;;;;12.00;83.67;100432.91;5036181;28;45537;-64
2022/12/21 01:59:22;;;;;;;;;7.00;7.00;;;;;12.00;84.33;100432.06;5029172;28;45452;-64
2022/12/21 02:01:48;;;;;;;;;7.33;5.00;;;;;11.98;83.22;100420.72;5037815;28;45489;-63
2022/12/21 02:04:13;;;;;;;;;8.00;7.67;;;;;12.02;83.78;100436.34;5036620;28;46307;-63
2022/12/21 02:06:50;;;;;;;;;5.67;5.33;;;;;11.93;83.59;100419.16;5034586;28;45386;-64
2022/12/21 02:09:16;;;;;;;;;5.33;5.33;;;;;12.01;84.02;100436.41;5028470;28;45358;-63
2022/12/21 02:11:42;;;;;;;;;6.00;6.00;;;;;12.01;83.35;100453.09;5037351;28;45496;-63
2022/12/21 02:14:12;;;;;;;;;6.33;6.33;;;;;12.04;83.94;100452.97;5037394;28;45392;-63
2022/12/21 02:16:57;;;;;;;;;5.33;5.33;;;;;12.01;82.10;100455.75;5037377;28;45492;-63
2022/12/21 02:19:55;;;;;;;;;3.67;3.67;;;;;11.96;81.21;100470.91;5036831;28;45483;-63
2022/12/21 02:22:52;;;;;;;;;4.67;4.67;;;;;11.91;81.06;100451.78;5023912;28;45492;-63
2022/12/21 02:25:52;;;;;;;;;3.00;3.00;;;;;11.72;80.40;100455.16;5037400;28;45448;-63
2022/12/21 02:28:26;;;;;;;;;4.00;3.00;;;;;11.70;80.78;100448.25;5037446;28;45504;-63
2022/12/21 02:31:15;;;;;;;;;3.00;3.00;;;;;11.68;81.23;100444.81;5036120;28;45498;-63
2022/12/21 02:33:47;;;;;;;;;3.67;3.67;;;;;11.65;80.33;100448.44;5037118;28;45390;-63
2022/12/21 02:36:30;;;;;;;;;2.00;2.00;;;;;11.64;80.20;100444.09;5036800;28;45435;-63
2022/12/21 02:39:11;;;;;;;;;2.00;2.00;;;;;11.62;80.29;100445.94;5037630;28;45503;-63
2022/12/21 02:45:34;;;;;;;;;2.33;2.00;;;;;11.51;79.46;100445.53;5037183;28;45535;-64
2022/12/21 02:48:49;;;;;;;;;2.00;2.00;;;;;11.47;79.92;100460.63;5035579;28;48340;-63
2022/12/21 02:51:22;;;;;;;;;2.67;2.00;;;;;11.47;80.64;100449.19;4975050;28;45543;-63
2022/12/21 02:53:48;;;;;;;;;5.67;4.00;;;;;11.44;79.75;100447.56;4973428;28;45432;-62
2022/12/21 02:56:15;;;;;;;;;1.00;1.00;;;;;11.41;80.19;100457.38;5006340;28;45709;-63
2022/12/21 02:58:41;;;;;;;;;2.00;2.00;;;;;11.33;80.18;100456.81;5029996;28;45484;-62
2022/12/21 03:01:21;;;;;;;;;4.67;3.00;;;;;11.31;79.83;100469.19;5034130;28;45434;-62
2022/12/21 03:04:12;;;;;;;;;3.00;2.00;;;;;11.22;80.03;100459.88;5036982;28;45413;-63
2022/12/21 03:06:50;;;;;;;;;4.00;4.00;;;;;11.24;80.40;100464.19;5016789;28;45605;-62
2022/12/21 03:09:40;;;;;;;;;3.67;3.67;;;;;11.23;79.58;100465.09;5026018;28;46688;-62
2022/12/21 03:12:23;;;;;;;;;2.00;2.00;;;;;11.23;79.93;100459.84;5035584;28;45502;-62
2022/12/21 03:15:01;;;;;;;;;3.67;3.67;;;;;11.21;79.10;100472.19;5036481;28;45515;-62
2022/12/21 03:17:35;;;;;;;;;1.33;1.33;;;;;11.17;79.24;100475.84;5023998;28;45653;-63
2022/12/21 03:20:19;;;;;;;;;2.00;2.00;;;;;11.13;79.67;100479.53;5036263;28;45539;-62
2022/12/21 03:22:57;;;;;;;;;1.00;1.00;;;;;11.07;80.78;100471.91;5036631;28;45479;-63
2022/12/21 03:25:29;;;;;;;;;2.33;2.33;;;;;11.08;79.87;100468.34;5036679;28;45520;-62
2022/12/21 03:28:01;;;;;;;;;3.00;3.00;;;;;11.15;80.48;100475.09;5035765;28;45557;-63
2022/12/21 03:30:29;;;;;;;;;3.67;3.00;;;;;11.12;79.63;100459.38;5036116;28;45781;-63
2022/12/21 03:33:00;;;;;;;;;4.00;4.00;;;;;11.18;80.48;100461.78;5035083;28;46011;-62
2022/12/21 03:35:28;;;;;;;;;4.00;4.00;;;;;11.22;80.18;100476.53;5036366;28;45445;-62
2022/12/21 03:37:56;;;;;;;;;4.67;4.67;;;;;11.24;80.70;100482.59;5035663;28;45631;-62
2022/12/21 03:40:27;;;;;;;;;3.00;3.00;;;;;11.21;79.50;100472.19;5016202;28;46370;-62
2022/12/21 03:43:15;;;;;;;;;4.00;4.00;;;;;11.28;79.54;100483.31;5019639;28;45402;-62
2022/12/21 03:45:56;;;;;;;;;3.00;3.00;;;;;11.26;79.42;100483.41;5021497;28;45492;-62
2022/12/21 03:48:30;;;;;;;;;2.00;2.00;;;;;11.32;79.12;100484.94;5020730;28;45413;-62
2022/12/21 03:51:03;;;;;;;;;2.00;2.00;;;;;11.28;78.48;100484.22;5035631;28;46193;-62
2022/12/21 03:53:54;;;;;;;;;1.00;1.00;;;;;11.26;77.99;100477.28;5035892;28;45568;-63
2022/12/21 03:56:29;;;;;;;;;1.00;1.00;;;;;11.27;79.21;100482.47;5034792;28;45456;-63
2022/12/21 03:58:55;;;;;;;;;1.00;1.00;;;;;11.27;78.82;100473.72;5036008;28;45427;-62
2022/12/21 04:01:44;;;;;;;;;3.00;2.00;;;;;11.31;78.72;100487.63;5034942;28;46650;-63
2022/12/21 04:04:26;;;;;;;;;1.00;1.00;;;;;11.31;78.93;100485.88;5025061;28;45527;-62
2022/12/21 04:06:54;;;;;;;;;0.67;0.67;;;;;11.27;78.41;100481.63;5027220;28;45600;-63
2022/12/21 04:09:20;;;;;;;;;2.00;1.00;;;;;11.23;77.82;100482.66;5026366;28;45586;-62
2022/12/21 04:14:29;;;;;;;;;1.00;1.00;;;;;11.27;77.51;100492.16;5020064;28;45419;-62
2022/12/21 04:16:54;;;;;;;;;1.00;1.00;;;;;11.26;77.23;100483.41;5028943;28;45536;-62
2022/12/21 04:22:04;;;;;;;;;2.33;1.00;;;;;11.15;77.90;100480.34;5035461;28;45364;-62
2022/12/21 04:29:57;;;;;;;;;1.00;1.00;;;;;11.27;77.39;100513.22;5035528;28;45362;-63
2022/12/21 04:32:23;;;;;;;;;0.00;0.00;;;;;11.24;78.08;100510.72;5035073;28;46542;-63
2022/12/21 04:34:48;;;;;;;;;3.33;2.00;;;;;11.22;77.43;100505.50;5034313;28;46006;-63
2022/12/21 04:37:32;;;;;;;;;0.00;0.00;;;;;11.18;76.96;100509.19;5033456;28;45455;-63
2022/12/21 04:39:59;;;;;;;;;3.33;2.00;;;;;11.20;78.12;100509.09;5036285;28;45423;-63
2022/12/21 04:42:25;;;;;;;;;2.00;2.00;;;;;11.23;76.66;100504.59;5035112;28;45563;-63
2022/12/21 04:44:51;;;;;;;;;3.00;3.00;;;;;11.22;76.89;100508.13;5034292;28;45481;-63
2022/12/21 04:47:17;;;;;;;;;1.00;1.00;;;;;11.25;77.60;100507.16;5026837;28;45341;-63
2022/12/21 04:49:42;;;;;;;;;1.67;1.67;;;;;11.18;77.63;100503.91;5030366;28;45528;-63
2022/12/21 04:52:08;;;;;;;;;1.67;1.00;;;;;11.21;77.38;100516.94;5024704;28;45410;-63
2022/12/21 04:54:33;;;;;;;;;1.00;1.00;;;;;11.20;76.78;100520.50;5031720;28;45491;-63
2022/12/21 04:56:58;;;;;;;;;2.00;2.00;;;;;11.17;77.72;100517.13;5035239;28;45681;-63
2022/12/21 04:59:24;;;;;;;;;1.00;1.00;;;;;11.18;76.86;100524.97;5035202;28;45419;-63
2022/12/21 05:01:50;;;;;;;;;2.00;2.00;;;;;11.18;76.96;100514.44;5035043;28;45412;-63
2022/12/21 05:04:15;;;;;;;;;3.00;1.67;;;;;11.15;76.90;100511.06;5033672;28;45505;-63
2022/12/21 05:06:40;;;;;;;;;4.67;3.00;;;;;11.19;76.14;100518.78;5034964;28;45445;-63
2022/12/21 05:09:06;;;;;;;;;1.00;1.00;;;;;11.18;76.94;100514.44;5027871;28;45524;-63
2022/12/21 05:11:33;;;;;;;;;1.67;1.67;;;;;11.16;76.64;100516.28;5024627;28;45507;-64
2022/12/21 05:13:58;;;;;;;;;2.33;2.33;;;;;11.12;76.57;100525.19;5021062;28;45457;-64
2022/12/21 05:16:24;;;;;;;;;3.67;2.33;;;;;11.10;76.02;100536.72;5029716;28;45440;-63
2022/12/21 05:18:52;;;;;;;;;1.33;1.33;;;;;11.05;77.24;100524.59;5037210;28;45318;-63
2022/12/21 05:21:17;;;;;;;;;0.00;0.00;;;;;11.11;76.00;100535.78;5034796;28;45814;-64
2022/12/21 05:23:43;;;;;;;;;2.00;1.00;;;;;11.01;75.94;100522.13;5037782;28;45735;-63
2022/12/21 05:26:09;;;;;;;;;1.00;1.00;;;;;11.06;76.04;100526.28;5036260;28;45710;-64
2022/12/21 05:28:35;;;;;;;;;1.00;1.00;;;;;11.02;75.15;100519.44;5036170;28;45515;-63
2022/12/21 05:31:03;;;;;;;;;4.33;2.33;;;;;11.03;76.06;100522.94;5035732;28;46430;-63
2022/12/21 05:33:28;;;;;;;;;1.00;1.00;;;;;11.02;76.47;100523.84;5038191;28;45491;-64
2022/12/21 05:35:53;;;;;;;;;1.00;1.00;;;;;11.03;75.99;100522.94;5038334;28;45515;-63
2022/12/21 05:38:19;;;;;;;;;3.67;2.00;;;;;11.04;75.96;100528.16;5038912;28;46020;-63
2022/12/21 05:40:50;;;;;;;;;2.00;1.00;;;;;11.03;75.95;100520.28;5037928;28;45457;-63
2022/12/21 05:43:16;;;;;;;;;2.00;2.00;;;;;11.02;76.56;100522.06;5037388;28;45429;-63
2022/12/21 05:45:42;;;;;;;;;1.00;1.00;;;;;11.01;75.73;100527.38;5028549;28;45488;-63
2022/12/21 05:48:07;;;;;;;;;4.00;3.00;;;;;10.96;75.15;100524.94;5023956;28;45646;-63
2022/12/21 05:50:33;;;;;;;;;1.67;1.67;;;;;10.96;75.75;100522.31;5037710;28;46536;-64
2022/12/21 05:52:58;;;;;;;;;2.00;2.00;;;;;10.94;75.90;100524.13;5037925;28;45433;-63
2022/12/21 05:55:23;;;;;;;;;4.00;2.00;;;;;10.94;76.14;100528.56;5035884;28;45412;-64
2022/12/21 05:57:49;;;;;;;;;3.00;3.00;;;;;10.93;76.55;100529.44;5034414;28;45376;-63
2022/12/21 06:00:14;;;;;;;;;2.33;2.00;;;;;10.95;75.75;100533.75;5032752;28;46734;-63
2022/12/21 06:02:40;;;;;;;;;2.00;2.00;;;;;10.93;76.13;100534.72;5030871;28;45409;-63
2022/12/21 06:05:06;;;;;;;;;3.00;3.00;;;;;10.92;76.46;100533.00;5024679;28;45491;-63
2022/12/21 06:07:31;;;;;;;;;3.00;3.00;;;;;10.87;75.87;100534.94;5037883;28;45539;-63
2022/12/21 06:09:56;;;;;;;;;2.33;1.67;;;;;10.84;75.36;100531.50;5037486;28;46486;-63
2022/12/21 06:12:22;;;;;;;;;2.67;2.67;;;;;10.70;75.35;100511.91;5036404;28;45388;-63
2022/12/21 06:14:47;;;;;;;;;4.00;3.00;;;;;10.82;75.20;100535.13;5033883;28;45524;-63
2022/12/21 06:17:12;;;;;;;;;2.00;2.00;;;;;10.79;75.38;100532.59;5037531;28;45530;-63
2022/12/21 06:19:38;;;;;;;;;1.00;1.00;;;;;10.73;76.33;100510.03;5030200;28;45559;-63
2022/12/21 06:22:03;;;;;;;;;1.00;1.00;;;;;10.74;76.31;100521.38;5037454;28;46021;-62
2022/12/21 06:24:28;;;;;;;;;3.00;3.00;;;;;10.74;76.23;100524.03;5028379;28;45424;-63
2022/12/21 06:26:53;;;;;;;;;3.00;1.33;;;;;10.75;75.86;100534.50;5022943;28;45659;-62
2022/12/21 06:32:03;;;;;;;;;2.00;2.00;;;;;10.76;75.78;100554.63;5034252;28;45401;-62
2022/12/21 06:34:28;;;;;;;;;3.00;3.00;;;;;10.75;75.66;100555.53;5035709;28;45483;-63
2022/12/21 06:36:54;;;;;;;;;2.00;2.00;;;;;10.75;75.32;100563.44;5031958;28;45532;-63
2022/12/21 06:39:19;;;;;;;;;1.33;1.33;;;;;10.70;75.75;100552.22;5038067;28;45486;-63
2022/12/21 06:41:44;;;;;;;;;1.33;1.33;;;;;10.71;75.70;100558.34;5036203;28;45456;-63
2022/12/21 06:44:10;;;;;;;;;2.67;2.33;;;;;10.57;75.78;100535.16;5034306;28;46045;-63
2022/12/21 06:46:35;;;;;;;;;1.33;1.33;;;;;10.67;75.27;100559.38;5022968;28;45698;-63
2022/12/21 06:49:00;;;;;;;;;1.33;1.00;;;;;10.68;75.50;100561.94;5017962;28;46479;-63
2022/12/21 06:51:27;;;;;;;;;2.33;2.33;;;;;10.63;76.07;100552.50;5020912;28;45457;-63
2022/12/21 06:53:53;;;;;;;;;2.00;2.00;;;;;10.62;75.06;100551.66;5027005;28;45452;-63
2022/12/21 06:56:24;;;;;;;;;2.00;2.00;;;;;10.59;74.83;100563.13;5033495;28;45654;-63
2022/12/21 06:58:53;;;;;;;;;4.00;4.00;;;;;10.51;75.42;100554.66;5036911;28;45492;-63
2022/12/21 07:01:21;;;;;;;;;3.67;3.67;;;;;10.51;75.51;100556.44;5034988;28;45571;-63
2022/12/21 07:03:46;;;;;;;;;2.33;2.33;;;;;10.50;75.11;100552.06;5036777;28;45429;-63
2022/12/21 07:06:14;;;;;;;;;4.00;3.00;;;;;10.45;75.82;100554.00;5034764;28;45485;-62
2022/12/21 07:08:40;;;;;;;;;6.67;4.67;;;;;10.48;75.67;100567.06;5027624;28;45468;-64
2022/12/21 07:11:08;;;;;;;;;4.00;4.00;;;;;10.51;75.47;100577.47;5034006;28;45817;-64
2022/12/21 07:13:35;;;;;;;;;4.00;4.00;;;;;10.43;74.33;100566.38;5033655;28;45455;-63
2022/12/21 07:16:01;;;;;;;;;4.00;4.00;;;;;10.38;74.72;100575.25;5027698;28;45557;-63
2022/12/21 07:18:26;;;;;;;;;4.00;4.00;;;;;10.37;75.18;100573.56;5030159;28;46018;-62
2022/12/21 07:21:05;;;;;;;;;4.00;4.00;;;;;10.42;75.06;100578.63;5026069;28;45536;-62
2022/12/21 07:23:32;;;;;;;;;5.00;5.00;;;;;10.38;74.69;100574.41;5030926;28;45737;-62
2022/12/21 07:25:58;;;;;;;;;7.00;5.00;;;;;10.33;74.85;100571.06;5023592;28;45469;-62
2022/12/21 07:28:24;;;;;;;;;8.00;7.33;;;;;10.33;75.40;100574.56;5020059;28;45699;-62
2022/12/21 07:31:02;;;;;;;;;3.67;3.67;;;;;10.35;75.54;100577.16;5020928;28;45491;-62
2022/12/21 07:33:29;;;;;;;;;3.00;3.00;;;;;10.31;75.26;100579.00;5027175;28;45487;-60
2022/12/21 07:35:58;;;;;;;;;3.33;3.33;;;;;10.27;75.30;100577.41;5019774;28;45619;-62
2022/12/21 07:38:24;;;;;;;;;4.00;4.00;;;;;10.30;74.35;100584.34;5029473;28;45542;-62
2022/12/21 07:40:49;;;;;;;;;10.33;8.00;;;;;10.27;74.86;100581.78;5036090;28;45540;-62
2022/12/21 07:43:14;;;;;;;;;9.33;9.33;;;;;10.33;74.92;100606.09;5036414;28;45547;-62
2022/12/21 07:45:40;;;;;;;;;8.00;8.00;;;;;10.32;74.97;100606.19;5024920;28;45756;-62
2022/12/21 07:48:06;;;;;;;;;7.00;7.00;;;;;10.29;74.36;100591.38;5021955;28;46079;-62
2022/12/21 07:50:31;;;;;;;;;5.67;5.67;;;;;10.20;74.57;100588.16;5034391;28;45781;-62
2022/12/21 07:52:58;;;;;;;;;6.33;6.33;;;;;10.23;74.90;100599.41;5036117;28;45495;-62
2022/12/21 07:55:24;;;;;;;;;4.33;4.00;;;;;10.19;75.01;100597.81;5036383;28;45568;-61
2022/12/21 07:57:49;;;;;;;;;6.00;6.00;;;;;10.14;75.47;100595.31;5034299;28;46446;-62
2022/12/21 08:00:15;;;;;;;;;10.00;10.00;;;;;10.09;75.60;100594.63;5036155;28;45492;-62
2022/12/21 08:02:40;;;;;;;;;7.67;7.67;;;;;10.17;75.26;100608.34;5036071;28;45388;-61
2022/12/21 08:05:06;;;;;;;;;7.00;5.00;;;;;10.13;75.00;100600.66;5035816;28;45426;-62
2022/12/21 08:07:31;;;;;;;;;6.67;6.67;;;;;10.16;74.59;100600.53;5035758;28;45631;-62
2022/12/21 08:09:56;;;;;;;;;8.00;8.00;;;;;10.12;75.25;100601.53;5035596;28;45496;-62
2022/12/21 08:12:22;;;;;;;;;4.67;4.67;;;;;10.12;76.07;100599.78;5035579;28;45495;-62
2022/12/21 08:14:47;;;;;;;;;18.67;17.67;;;;;10.10;75.05;100603.34;5027450;28;45638;-62
2022/12/21 08:17:12;;;;;;;;;8.67;7.00;;;;;10.09;75.27;100602.50;5035543;28;45437;-61
2022/12/21 08:19:38;;;;;;;;;5.67;5.67;;;;;10.13;75.46;100613.78;5035509;28;45385;-62
2022/12/21 08:22:03;;;;;;;;;4.00;4.00;;;;;10.13;75.60;100609.38;5035684;28;45505;-62
2022/12/21 08:24:29;;;;;;;;;6.33;6.33;;;;;10.15;74.91;100609.31;5035765;28;45547;-62
2022/12/21 08:26:54;;;;;;;;;7.00;7.00;;;;;10.14;74.74;100610.25;5035151;28;45593;-62
2022/12/21 08:29:20;;;;;;;;;9.00;7.33;;;;;10.13;75.70;100609.38;5034206;28;45626;-62
2022/12/21 08:31:45;;;;;;;;;7.00;7.00;;;;;10.18;74.93;100617.09;5035501;28;45390;-63
2022/12/21 08:34:10;;;;;;;;;7.00;7.00;;;;;10.11;75.25;100599.84;5035482;28;45309;-63
2022/12/21 08:36:36;;;;;;;;;7.00;7.00;;;;;10.22;75.44;100599.47;5035314;28;46419;-63
2022/12/21 08:39:01;;;;;;;;;7.00;5.00;;;;;10.22;75.30;100604.72;5034506;28;45406;-63
2022/12/21 08:41:26;;;;;;;;;9.33;9.33;;;;;10.19;75.59;100592.56;5035525;28;45327;-62
2022/12/21 08:43:52;;;;;;;;;6.00;6.00;;;;;10.20;74.80;100599.50;5033126;28;45379;-62
2022/12/21 08:46:17;;;;;;;;;9.00;9.00;;;;;10.24;75.49;100611.66;5019113;28;46577;-62
2022/12/21 08:48:42;;;;;;;;;8.67;8.67;;;;;10.29;75.29;100622.91;5025000;28;45429;-63
2022/12/21 08:51:08;;;;;;;;;8.33;6.00;;;;;10.27;74.84;100619.47;5034075;28;45464;-63
2022/12/21 08:53:35;;;;;;;;;11.00;6.00;;;;;10.33;74.85;100621.88;5035220;28;45536;-63
2022/12/21 08:56:00;;;;;;;;;6.67;6.67;;;;;10.33;75.15;100621.03;5035086;28;45495;-63
2022/12/21 08:58:26;;;;;;;;;9.00;8.33;;;;;10.38;74.64;100629.63;5034523;28;45431;-63
2022/12/21 09:00:53;;;;;;;;;8.67;6.00;;;;;10.39;75.38;100618.19;5035112;28;45516;-63
2022/12/21 09:03:20;;;;;;;;;9.33;6.67;;;;;10.38;75.13;100603.31;5035033;28;45443;-64
2022/12/21 09:05:48;;;;;;;;;4.33;4.00;;;;;10.38;74.28;100593.66;5034726;28;46441;-63
2022/12/21 09:08:13;;;;;;;;;5.00;4.67;;;;;10.43;74.83;100598.78;5034705;28;45399;-63
2022/12/21 09:10:39;;;;;;;;;5.67;5.00;;;;;10.45;74.44;100591.69;5034903;28;45785;-62
2022/12/21 09:13:05;;;;;;;;;9.00;8.67;;;;;10.47;74.82;100600.38;5034851;28;45634;-62
2022/12/21 09:15:30;;;;;;;;;5.33;5.33;;;;;10.52;75.12;100614.22;5027505;28;46393;-63
2022/12/21 09:17:57;;;;;;;;;6.33;5.00;;;;;10.55;74.54;100613.25;5034846;28;45447;-63
2022/12/21 09:20:22;;;;;;;;;8.00;6.33;;;;;10.52;74.61;100608.97;5034605;28;45373;-63
2022/12/21 09:22:48;;;;;;;;;8.00;7.00;;;;;10.54;75.12;100609.78;5034726;28;45450;-63
2022/12/21 09:25:13;;;;;;;;;8.00;5.00;;;;;10.52;75.38;100590.53;5034530;28;46653;-63
2022/12/21 09:27:39;;;;;;;;;5.00;5.00;;;;;10.56;74.73;100615.00;5034664;28;45390;-63
2022/12/21 09:30:05;;;;;;;;;6.00;4.00;;;;;10.51;75.28;100602.00;5034899;28;46122;-63
2022/12/21 09:32:30;;;;;;;;;7.67;7.67;;;;;10.53;74.91;100608.06;5034630;28;45402;-63
2022/12/21 09:34:56;;;;;;;;;5.00;5.00;;;;;10.53;75.71;100597.53;5034486;28;45488;-63
2022/12/21 09:37:21;;;;;;;;;9.00;9.00;;;;;10.54;74.76;100612.41;5033133;28;45412;-63
2022/12/21 09:39:46;;;;;;;;;12.00;10.00;;;;;10.51;74.66;100619.53;5035245;28;45588;-64
2022/12/21 09:42:42;;;;;;;;;6.00;6.00;;;;;10.52;74.76;100635.25;5034416;28;45370;-63
2022/12/21 09:45:22;;;;;;;;;8.00;8.00;;;;;10.52;74.54;100626.50;5021508;28;46597;-63
2022/12/21 09:47:59;;;;;;;;;8.33;8.33;;;;;10.53;75.22;100630.84;5016038;28;45700;-63
2022/12/21 09:50:41;;;;;;;;;8.33;8.33;;;;;10.49;75.21;100627.47;5034242;28;45358;-63
2022/12/21 09:53:25;;;;;;;;;11.00;10.33;;;;;10.47;75.08;100628.44;5034304;28;45534;-63
2022/12/21 09:55:54;;;;;;;;;5.00;5.00;;;;;10.51;74.54;100641.44;5034129;28;45391;-63
2022/12/21 09:58:37;;;;;;;;;8.00;6.00;;;;;10.51;75.44;100645.84;5033979;28;45440;-63
2022/12/21 10:01:16;;;;;;;;;3.33;3.33;;;;;10.47;74.99;100634.53;5034343;28;45548;-63
2022/12/21 10:04:20;;;;;;;;;6.33;5.00;;;;;10.54;75.20;100640.47;5037271;28;45372;-63
2022/12/21 10:07:15;;;;;;;;;4.00;4.00;;;;;10.49;75.41;100631.88;5008814;28;45517;-63
2022/12/21 10:10:35;;;;;;;;;8.00;8.00;;;;;10.56;75.08;100642.13;5021817;28;45676;-63
2022/12/21 10:13:06;;;;;;;;;6.33;5.00;;;;;10.54;75.91;100636.06;4970367;28;45602;-63
2022/12/21 10:15:49;;;;;;;;;5.67;5.00;;;;;10.56;75.75;100649.19;4976117;28;45427;-63
2022/12/21 10:18:33;;;;;;;;;5.00;4.00;;;;;10.58;75.12;100647.31;5020282;28;45681;-63
2022/12/21 10:21:20;;;;;;;;;10.33;5.33;;;;;10.58;75.52;100637.66;5037525;28;45484;-63
2022/12/21 10:23:50;;;;;;;;;12.67;9.33;;;;;10.62;75.00;100625.28;5037291;28;45381;-63
2022/12/21 10:26:21;;;;;;;;;8.33;7.67;;;;;10.62;75.02;100625.28;5037413;28;45459;-63
2022/12/21 10:29:04;;;;;;;;;10.67;10.67;;;;;10.69;74.92;100618.03;5037033;28;46400;-63
2022/12/21 10:31:38;;;;;;;;;8.33;7.33;;;;;10.68;74.52;100622.44;5037209;28;45454;-63
2022/12/21 10:34:17;;;;;;;;;9.00;9.00;;;;;10.68;74.82;100606.66;5037158;28;45489;-63
2022/12/21 10:36:43;;;;;;;;;11.00;11.00;;;;;10.67;74.87;100610.19;5037516;28;45477;-63
2022/12/21 10:39:13;;;;;;;;;8.00;6.67;;;;;10.62;75.31;100596.34;5035225;28;45741;-63
2022/12/21 10:41:43;;;;;;;;;14.67;11.33;;;;;10.70;74.56;100604.81;5036925;28;45515;-63
2022/12/21 10:44:12;;;;;;;;;6.67;6.67;;;;;10.74;75.09;100608.19;5037007;28;45400;-63
2022/12/21 10:46:37;;;;;;;;;8.67;8.67;;;;;10.79;74.47;100593.97;5030584;28;45427;-63
2022/12/21 10:49:33;;;;;;;;;8.00;8.00;;;;;10.79;75.53;100596.59;5018076;28;45448;-63
2022/12/21 10:51:58;;;;;;;;;6.33;5.00;;;;;10.80;75.61;100595.69;5025474;28;45538;-63
2022/12/21 10:54:28;;;;;;;;;4.67;4.67;;;;;10.82;74.39;100577.22;5037041;28;45456;-63
2022/12/21 10:56:56;;;;;;;;;7.33;7.33;;;;;10.79;74.37;100570.28;5036958;28;45562;-63
2022/12/21 10:59:24;;;;;;;;;11.33;10.67;;;;;10.82;75.45;100569.31;5035455;28;45469;-63
2022/12/21 11:01:50;;;;;;;;;4.67;4.67;;;;;10.75;75.10;100560.81;5036574;28;45395;-63
2022/12/21 11:04:22;;;;;;;;;10.00;8.33;;;;;10.83;75.09;100569.28;5024611;28;45383;-63
2022/12/21 11:07:26;;;;;;;;;9.67;8.67;;;;;10.83;75.36;100564.00;5027244;28;45728;-65
2022/12/21 11:10:03;;;;;;;;;8.00;7.33;;;;;10.81;75.15;100544.78;5028380;28;46202;-65
2022/12/21 11:12:28;;;;;;;;;10.33;8.00;;;;;10.88;74.76;100549.81;5035770;28;45718;-65
2022/12/21 11:14:55;;;;;;;;;10.00;10.00;;;;;10.91;75.04;100549.69;5035090;28;45465;-64
2022/12/21 11:17:27;;;;;;;;;10.00;8.33;;;;;10.91;74.47;100537.41;5036349;28;45383;-65
2022/12/21 11:20:16;;;;;;;;;8.67;6.33;;;;;10.88;74.45;100534.91;5036026;28;46083;-64
2022/12/21 11:22:45;;;;;;;;;11.67;10.67;;;;;10.95;74.43;100532.88;5036146;28;45372;-65
2022/12/21 11:25:23;;;;;;;;;6.00;6.00;;;;;10.94;74.22;100532.03;5036591;28;45529;-64
2022/12/21 11:27:54;;;;;;;;;10.00;9.00;;;;;10.95;74.44;100530.25;5036803;28;45410;-64
2022/12/21 11:30:24;;;;;;;;;8.67;8.67;;;;;11.00;74.56;100538.84;5031040;28;45516;-65
2022/12/21 11:32:53;;;;;;;;;6.33;6.00;;;;;10.93;74.83;100525.03;5025097;28;45433;-64
2022/12/21 11:35:20;;;;;;;;;10.00;9.00;;;;;11.02;74.59;100531.75;5036221;28;45397;-64
2022/12/21 11:37:51;;;;;;;;;11.00;9.33;;;;;11.04;74.80;100537.78;5036346;28;45424;-64
2022/12/21 11:40:22;;;;;;;;;11.33;11.33;;;;;11.03;75.10;100520.28;5036508;28;46574;-65
2022/12/21 11:42:58;;;;;;;;;7.00;6.33;;;;;11.05;74.95;100516.69;5036223;28;45511;-65
2022/12/21 11:45:31;;;;;;;;;9.00;6.00;;;;;11.05;75.01;100518.47;5024693;28;45556;-64
2022/12/21 11:48:22;;;;;;;;;3.50;3.50;;;;;11.06;74.71;100512.28;5021828;28;45528;-65
2022/12/21 11:51:06;;;;;;;;;8.33;8.33;;;;;11.06;74.74;100512.28;5026769;28;46623;-60
2022/12/21 11:53:59;;;;;;;;;5.00;5.00;;;;;11.06;74.42;100512.28;5034096;28;45588;-61